Time;durP1;ratioP1;P1;durP2;ratioP2;P2;SDS_P1;SDS_P2;PMS_P1;PMS_P2;Temp;Humidity;BMP_temperature;BMP_pressure;BME280_temperature;BME280_humidity;BME280_pressure;Samples;Min_cycle;Max_cycle;Signal;HPM_P1;HPM_P2
2023/06/26 00:02:15;;;;;;;12.27;10.40;;;22.20;99.90;;;;;;5053132;28;20434;-48
2023/06/26 00:04:43;;;;;;;12.93;11.67;;;22.10;99.90;;;;;;5052690;28;20489;-48
2023/06/26 00:07:09;;;;;;;15.60;12.37;;;22.20;99.90;;;;;;5052690;28;20481;-47
2023/06/26 00:09:36;;;;;;;14.57;12.90;;;22.10;99.90;;;;;;5052165;28;20439;-46
2023/06/26 00:12:03;;;;;;;13.60;12.27;;;22.00;99.90;;;;;;5052509;28;20452;-46
2023/06/26 00:14:30;;;;;;;13.47;12.07;;;22.10;99.90;;;;;;5052366;28;20453;-47
2023/06/26 00:16:58;;;;;;;12.10;10.80;;;22.20;99.90;;;;;;5052609;28;20425;-48
2023/06/26 00:19:24;;;;;;;13.90;12.40;;;22.10;99.90;;;;;;5052257;28;20474;-48
2023/06/26 00:21:51;;;;;;;12.37;11.13;;;21.90;99.90;;;;;;5052678;28;20454;-48
2023/06/26 00:24:18;;;;;;;11.57;10.40;;;22.10;99.90;;;;;;5052198;28;20458;-48
2023/06/26 00:26:48;;;;;;;12.30;11.07;;;22.10;99.90;;;;;;5052270;28;20435;-47
2023/06/26 00:29:14;;;;;;;13.70;12.10;;;22.10;99.90;;;;;;5051818;28;20524;-47
2023/06/26 00:31:41;;;;;;;11.60;10.50;;;22.00;99.90;;;;;;5052203;28;20443;-47
2023/06/26 00:34:09;;;;;;;12.63;11.33;;;22.00;99.90;;;;;;5034054;28;20504;-46
2023/06/26 00:36:36;;;;;;;14.00;12.60;;;22.00;99.90;;;;;;5034500;28;20454;-46
2023/06/26 00:39:05;;;;;;;12.13;10.93;;;21.90;99.90;;;;;;5033966;28;20983;-48
2023/06/26 00:41:31;;;;;;;12.43;11.33;;;21.90;99.90;;;;;;5034120;28;20538;-46
2023/06/26 00:43:58;;;;;;;14.87;12.43;;;21.90;99.90;;;;;;5052047;28;20822;-46
2023/06/26 00:46:27;;;;;;;12.30;11.20;;;21.90;99.90;;;;;;5052227;28;20439;-47
2023/06/26 00:48:55;;;;;;;13.27;11.97;;;21.90;99.90;;;;;;5033794;28;20453;-47
2023/06/26 00:51:23;;;;;;;13.40;12.10;;;21.90;99.90;;;;;;5034162;28;21033;-46
2023/06/26 00:53:51;;;;;;;13.90;12.50;;;21.90;99.90;;;;;;5034111;28;20888;-47
2023/06/26 00:56:19;;;;;;;12.30;11.20;;;21.90;99.90;;;;;;5051985;28;20814;-47
2023/06/26 00:58:46;;;;;;;12.10;11.10;;;22.00;99.90;;;;;;5033607;28;20839;-47
2023/06/26 01:01:15;;;;;;;11.70;10.50;;;22.00;99.90;;;;;;5034075;28;20468;-47
2023/06/26 01:03:43;;;;;;;12.17;11.07;;;22.00;99.90;;;;;;5051862;28;20976;-47
2023/06/26 01:06:12;;;;;;;12.77;11.63;;;22.00;99.90;;;;;;5051855;28;20514;-47
2023/06/26 01:08:41;;;;;;;13.70;12.37;;;22.00;99.90;;;;;;5051335;28;20471;-48
2023/06/26 01:11:08;;;;;;;13.53;12.43;;;22.10;99.90;;;;;;5051862;28;20802;-47
2023/06/26 01:13:36;;;;;;;12.93;11.73;;;22.10;99.90;;;;;;5051707;28;20464;-48
2023/06/26 01:16:04;;;;;;;13.13;11.80;;;22.10;99.90;;;;;;5033901;28;20447;-47
2023/06/26 01:18:32;;;;;;;14.10;12.70;;;22.10;99.90;;;;;;5051426;28;20447;-46
2023/06/26 01:21:01;;;;;;;12.70;11.57;;;22.30;99.90;;;;;;5051693;28;20434;-47
2023/06/26 01:23:36;;;;;;;13.30;12.10;;;22.10;99.90;;;;;;5051669;28;20557;-46
2023/06/26 01:26:17;;;;;;;13.77;12.40;;;22.10;99.90;;;;;;5033852;28;20458;-47
2023/06/26 01:28:44;;;;;;;12.63;11.50;;;22.10;99.90;;;;;;5052042;28;20427;-47
2023/06/26 01:31:12;;;;;;;13.30;10.97;;;22.10;99.90;;;;;;5055609;28;20471;-47
2023/06/26 01:33:40;;;;;;;13.53;12.23;;;22.10;99.90;;;;;;5057613;28;20471;-47
2023/06/26 01:36:07;;;;;;;11.53;10.33;;;22.10;99.90;;;;;;5038462;28;20443;-47
2023/06/26 01:38:36;;;;;;;11.80;10.70;;;22.00;99.90;;;;;;5037541;28;20533;-46
2023/06/26 01:41:03;;;;;;;13.77;12.23;;;22.10;99.90;;;;;;5037873;28;20446;-48
2023/06/26 01:43:40;;;;;;;14.63;13.33;;;22.10;99.90;;;;;;5037527;28;20473;-47
2023/06/26 01:46:11;;;;;;;13.33;12.13;;;22.10;99.90;;;;;;5037560;28;20534;-47
2023/06/26 01:48:45;;;;;;;12.40;11.20;;;22.10;99.90;;;;;;5037328;28;20533;-45
2023/06/26 01:51:15;;;;;;;14.13;12.57;;;22.00;99.90;;;;;;5037704;28;21041;-47
2023/06/26 01:53:48;;;;;;;13.40;11.13;;;22.00;99.90;;;;;;5037529;28;20473;-47
2023/06/26 01:56:18;;;;;;;14.03;12.63;;;22.00;99.90;;;;;;5055380;28;20441;-47
2023/06/26 01:58:47;;;;;;;14.10;12.80;;;22.00;99.90;;;;;;5036892;28;20459;-48
2023/06/26 02:01:14;;;;;;;13.43;12.23;;;21.90;99.90;;;;;;5037429;28;20450;-47
2023/06/26 02:03:41;;;;;;;13.93;12.60;;;21.90;99.90;;;;;;5055233;28;20467;-47
2023/06/26 02:06:08;;;;;;;17.63;14.87;;;21.70;99.90;;;;;;5055424;28;20437;-47
2023/06/26 02:08:34;;;;;;;16.13;14.53;;;21.90;99.90;;;;;;5055052;28;20803;-46
2023/06/26 02:11:01;;;;;;;13.63;12.30;;;21.90;99.90;;;;;;5055136;28;20442;-46
2023/06/26 02:13:27;;;;;;;13.73;12.50;;;21.90;99.90;;;;;;5055288;28;20795;-48
2023/06/26 02:15:55;;;;;;;13.20;12.20;;;21.80;99.90;;;;;;5037247;28;20912;-47
2023/06/26 02:18:23;;;;;;;13.83;12.63;;;22.00;99.90;;;;;;5036803;28;20512;-47
2023/06/26 02:20:49;;;;;;;13.53;12.30;;;22.00;99.90;;;;;;5055009;28;20534;-47
2023/06/26 02:23:16;;;;;;;15.00;13.60;;;22.10;99.90;;;;;;5055414;28;20458;-46
2023/06/26 02:25:43;;;;;;;14.43;13.17;;;21.80;99.90;;;;;;5054941;28;20444;-48
2023/06/26 02:28:10;;;;;;;14.23;12.93;;;22.00;99.90;;;;;;5054849;28;20500;-47
2023/06/26 02:30:36;;;;;;;13.73;12.47;;;21.90;99.90;;;;;;5054558;28;20924;-46
2023/06/26 02:33:04;;;;;;;14.40;13.20;;;21.90;99.90;;;;;;5036656;28;20431;-48
2023/06/26 02:35:32;;;;;;;15.73;14.23;;;21.90;99.90;;;;;;5054708;28;20518;-47
2023/06/26 02:37:59;;;;;;;14.93;13.37;;;22.00;99.90;;;;;;5054473;28;20525;-47
2023/06/26 02:40:26;;;;;;;13.67;12.40;;;22.00;99.90;;;;;;5034969;28;20483;-47
2023/06/26 02:42:53;;;;;;;14.37;12.93;;;22.00;99.90;;;;;;5036630;28;20473;-47
2023/06/26 02:45:20;;;;;;;14.93;13.50;;;22.00;99.90;;;;;;5036364;28;20462;-47
2023/06/26 02:47:47;;;;;;;14.53;13.10;;;22.00;99.90;;;;;;5036560;28;20958;-47
2023/06/26 02:50:15;;;;;;;14.83;13.37;;;22.00;99.90;;;;;;5036786;28;20483;-49
2023/06/26 02:53:03;;;;;;;14.30;13.00;;;22.00;99.90;;;;;;5036849;28;20462;-47
2023/06/26 02:55:29;;;;;;;14.60;13.20;;;22.00;99.90;;;;;;5036125;28;20456;-47
2023/06/26 02:57:57;;;;;;;17.70;14.33;;;22.00;99.90;;;;;;5036148;28;20482;-47
2023/06/26 03:00:24;;;;;;;14.30;13.07;;;22.00;99.90;;;;;;5035885;28;20477;-47
2023/06/26 03:02:53;;;;;;;14.17;12.83;;;22.00;99.90;;;;;;5036240;28;20447;-48
2023/06/26 03:05:23;;;;;;;15.67;14.00;;;21.80;99.90;;;;;;5035944;28;20454;-47
2023/06/26 03:07:50;;;;;;;18.90;15.23;;;21.90;99.90;;;;;;5036010;28;20462;-47
2023/06/26 03:10:17;;;;;;;15.30;13.90;;;21.80;99.90;;;;;;5053459;28;20483;-46
2023/06/26 03:12:44;;;;;;;15.80;14.40;;;21.90;99.90;;;;;;5035712;28;20450;-47
2023/06/26 03:15:11;;;;;;;16.97;15.33;;;21.80;99.90;;;;;;5035653;28;20470;-47
2023/06/26 03:17:39;;;;;;;17.07;13.80;;;21.70;99.90;;;;;;5035634;28;20503;-47
2023/06/26 03:20:09;;;;;;;16.57;15.10;;;21.70;99.90;;;;;;5035641;28;20852;-47
2023/06/26 03:22:54;;;;;;;16.27;14.67;;;21.70;99.90;;;;;;5035858;28;20444;-47
2023/06/26 03:25:21;;;;;;;15.27;13.93;;;21.70;99.90;;;;;;5053675;28;20496;-47
2023/06/26 03:27:49;;;;;;;15.17;13.80;;;21.70;99.90;;;;;;5035662;28;20453;-48
2023/06/26 03:30:17;;;;;;;16.20;14.80;;;21.70;99.90;;;;;;5035227;28;20457;-47
2023/06/26 03:32:46;;;;;;;17.27;14.87;;;21.70;99.90;;;;;;5035572;28;20813;-47
2023/06/26 03:35:13;;;;;;;17.30;15.37;;;21.60;99.90;;;;;;5035085;28;20521;-50
2023/06/26 03:37:40;;;;;;;17.50;16.00;;;21.50;99.90;;;;;;5035427;28;20665;-47
2023/06/26 03:40:10;;;;;;;18.23;16.63;;;21.70;99.90;;;;;;5034933;28;20509;-48
2023/06/26 03:42:37;;;;;;;17.23;15.70;;;21.20;99.90;;;;;;5035367;28;20980;-47
2023/06/26 03:45:05;;;;;;;17.83;16.03;;;21.70;99.90;;;;;;5052887;28;20446;-47
2023/06/26 03:47:33;;;;;;;18.60;16.60;;;21.70;99.90;;;;;;5035009;28;20528;-47
2023/06/26 03:49:59;;;;;;;17.47;15.57;;;21.70;99.90;;;;;;5034779;28;20817;-47
2023/06/26 03:52:26;;;;;;;16.97;15.30;;;21.80;99.90;;;;;;5035050;28;20450;-47
2023/06/26 03:54:53;;;;;;;16.93;15.23;;;21.60;99.90;;;;;;5034857;28;20508;-47
2023/06/26 03:57:21;;;;;;;17.87;16.27;;;21.90;99.90;;;;;;5052744;28;20434;-47
2023/06/26 03:59:48;;;;;;;18.93;17.33;;;22.00;99.90;;;;;;5034523;28;21173;-47
2023/06/26 04:02:15;;;;;;;18.57;16.93;;;21.80;99.90;;;;;;5035046;28;20496;-47
2023/06/26 04:04:43;;;;;;;18.20;16.50;;;22.20;99.90;;;;;;5034641;28;20477;-47
2023/06/26 04:07:10;;;;;;;20.57;16.37;;;22.30;99.90;;;;;;5035260;28;20455;-48
2023/06/26 04:09:37;;;;;;;17.93;16.53;;;22.40;99.90;;;;;;5035394;28;20447;-46
2023/06/26 04:12:05;;;;;;;19.97;17.97;;;22.60;99.90;;;;;;5052583;28;20444;-48
2023/06/26 04:14:33;;;;;;;18.57;16.80;;;22.80;99.90;;;;;;5034476;28;21009;-47
2023/06/26 04:17:01;;;;;;;16.63;15.23;;;22.90;99.90;;;;;;5052432;28;20808;-47
2023/06/26 04:19:28;;;;;;;16.43;14.83;;;23.10;99.90;;;;;;5051917;28;20439;-48
2023/06/26 04:21:54;;;;;;;17.03;15.33;;;23.30;99.90;;;;;;5052258;28;20958;-47
2023/06/26 04:24:21;;;;;;;16.87;15.37;;;23.40;99.90;;;;;;5052020;28;20452;-46
2023/06/26 04:26:48;;;;;;;16.63;15.20;;;23.60;99.90;;;;;;5052062;28;20916;-46
2023/06/26 04:29:14;;;;;;;20.33;15.83;;;23.70;99.90;;;;;;5051801;28;20449;-48
2023/06/26 04:31:46;;;;;;;14.63;13.40;;;23.90;99.90;;;;;;5052026;28;20925;-47
2023/06/26 04:34:13;;;;;;;15.40;14.13;;;24.10;99.90;;;;;;5051943;28;20513;-47
2023/06/26 04:36:40;;;;;;;14.63;13.33;;;24.20;99.90;;;;;;5052109;28;20434;-48
2023/06/26 04:39:06;;;;;;;15.33;13.97;;;24.30;99.90;;;;;;5051499;28;20437;-47
2023/06/26 04:41:33;;;;;;;15.43;13.70;;;24.30;99.90;;;;;;5051814;28;20486;-49
2023/06/26 04:44:00;;;;;;;14.27;13.03;;;24.30;99.90;;;;;;5051872;28;20455;-47
2023/06/26 04:46:27;;;;;;;15.40;14.00;;;24.30;99.90;;;;;;5052205;28;20947;-47
2023/06/26 04:48:57;;;;;;;16.20;14.57;;;24.20;99.90;;;;;;5051647;28;20831;-47
2023/06/26 04:51:24;;;;;;;14.97;13.67;;;24.20;99.90;;;;;;5051870;28;20490;-48
2023/06/26 04:53:51;;;;;;;16.13;14.63;;;24.30;99.90;;;;;;5051897;28;20457;-47
2023/06/26 04:56:17;;;;;;;16.80;15.20;;;24.30;99.90;;;;;;5034168;28;20453;-48
2023/06/26 04:58:44;;;;;;;16.80;15.40;;;24.40;99.90;;;;;;5051336;28;20430;-48
2023/06/26 05:01:13;;;;;;;15.83;14.20;;;24.40;99.90;;;;;;5051456;28;21002;-47
2023/06/26 05:03:40;;;;;;;16.33;14.63;;;24.40;99.90;;;;;;5051080;28;20457;-48
2023/06/26 05:06:08;;;;;;;16.30;14.63;;;24.40;99.90;;;;;;5051583;28;20904;-48
2023/06/26 05:08:35;;;;;;;15.30;13.90;;;24.40;99.90;;;;;;5051210;28;20438;-47
2023/06/26 05:11:01;;;;;;;15.40;14.00;;;24.40;99.90;;;;;;5051830;28;20954;-48
2023/06/26 05:13:28;;;;;;;15.30;13.97;;;24.40;99.90;;;;;;5051457;28;20849;-47
2023/06/26 05:15:54;;;;;;;14.63;12.83;;;24.80;99.90;;;;;;5051429;28;20461;-47
2023/06/26 05:18:21;;;;;;;15.13;13.73;;;24.90;99.90;;;;;;5033088;28;20450;-48
2023/06/26 05:20:48;;;;;;;14.17;12.93;;;25.10;99.90;;;;;;5051385;28;20478;-47
2023/06/26 05:23:17;;;;;;;17.37;13.60;;;25.20;99.90;;;;;;5033935;28;20464;-47
2023/06/26 05:25:44;;;;;;;15.23;13.73;;;25.20;99.90;;;;;;5052098;28;20438;-46
2023/06/26 05:28:12;;;;;;;15.90;13.47;;;25.30;99.90;;;;;;5050921;28;20445;-48
2023/06/26 05:30:39;;;;;;;12.60;11.50;;;25.40;99.90;;;;;;5051315;28;20435;-48
2023/06/26 05:33:07;;;;;;;13.83;12.43;;;25.60;99.90;;;;;;5050968;28;20881;-48
2023/06/26 05:35:36;;;;;;;14.00;12.60;;;25.80;99.90;;;;;;5051462;28;20670;-49
2023/06/26 05:38:04;;;;;;;14.90;13.40;;;25.80;99.80;;;;;;5051088;28;20911;-47
2023/06/26 05:40:33;;;;;;;14.40;12.97;;;25.90;99.50;;;;;;5032773;28;20466;-47
2023/06/26 05:43:01;;;;;;;14.33;12.93;;;25.90;99.30;;;;;;5050949;28;20514;-47
2023/06/26 05:45:27;;;;;;;15.90;14.40;;;26.00;99.30;;;;;;5033553;28;20450;-49
2023/06/26 05:47:54;;;;;;;13.40;12.20;;;25.90;99.10;;;;;;5051054;28;20434;-48
2023/06/26 05:50:21;;;;;;;14.20;12.90;;;25.90;98.90;;;;;;5050638;28;20442;-52
2023/06/26 05:52:48;;;;;;;13.87;12.53;;;25.90;98.90;;;;;;5051424;28;20430;-48
2023/06/26 05:55:15;;;;;;;14.70;13.30;;;25.90;98.90;;;;;;5051202;28;20454;-48
2023/06/26 05:57:46;;;;;;;14.20;12.80;;;26.00;98.80;;;;;;5050911;28;20437;-50
2023/06/26 06:00:13;;;;;;;12.90;11.67;;;25.90;98.50;;;;;;5050090;28;20534;-48
2023/06/26 06:02:41;;;;;;;12.83;11.67;;;26.10;98.40;;;;;;5050928;28;20445;-48
2023/06/26 06:05:08;;;;;;;14.93;13.53;;;26.10;98.10;;;;;;5050247;28;20451;-48
2023/06/26 06:07:36;;;;;;;14.80;12.80;;;26.10;97.90;;;;;;5050992;28;20442;-49
2023/06/26 06:10:04;;;;;;;13.00;11.60;;;26.20;97.90;;;;;;5050763;28;20525;-47
2023/06/26 06:12:31;;;;;;;12.77;11.57;;;26.30;97.70;;;;;;5050902;28;20443;-48
2023/06/26 06:14:59;;;;;;;12.10;11.00;;;26.30;97.70;;;;;;5050713;28;20450;-48
2023/06/26 06:17:25;;;;;;;14.80;11.50;;;26.50;97.50;;;;;;5053947;28;20438;-48
2023/06/26 06:19:52;;;;;;;12.77;11.50;;;26.60;97.30;;;;;;5053953;28;20427;-48
2023/06/26 06:22:18;;;;;;;12.00;10.87;;;26.60;97.00;;;;;;5054327;28;20435;-47
2023/06/26 06:24:45;;;;;;;10.83;9.80;;;26.70;96.70;;;;;;5036223;28;20536;-47
2023/06/26 06:27:13;;;;;;;13.20;11.83;;;26.70;96.50;;;;;;5053733;28;20423;-50
2023/06/26 06:29:39;;;;;;;12.33;11.23;;;26.80;96.10;;;;;;5053773;28;20485;-49
2023/06/26 06:32:08;;;;;;;10.93;9.93;;;26.80;96.00;;;;;;5054407;28;20438;-48
2023/06/26 06:34:35;;;;;;;11.60;10.17;;;26.90;95.90;;;;;;5054103;28;20957;-48
2023/06/26 06:37:03;;;;;;;12.53;10.97;;;26.90;95.60;;;;;;5054308;28;20431;-48
2023/06/26 06:39:30;;;;;;;13.83;10.23;;;27.00;95.40;;;;;;5054009;28;20455;-48
2023/06/26 06:41:56;;;;;;;12.97;9.80;;;27.00;95.30;;;;;;5054878;28;20470;-48
2023/06/26 06:44:23;;;;;;;11.70;9.97;;;27.00;95.10;;;;;;5053808;28;20540;-47
2023/06/26 06:46:50;;;;;;;11.13;9.93;;;27.10;94.90;;;;;;5054037;28;20450;-48
2023/06/26 06:49:18;;;;;;;13.33;10.70;;;27.10;94.60;;;;;;5053480;28;20441;-48
2023/06/26 06:51:44;;;;;;;10.23;9.23;;;26.90;94.50;;;;;;5053563;28;20440;-47
2023/06/26 06:54:11;;;;;;;10.50;9.47;;;27.10;94.70;;;;;;5053907;28;20473;-49
2023/06/26 06:56:37;;;;;;;9.20;8.20;;;27.00;93.90;;;;;;5053742;28;20430;-47
2023/06/26 06:59:04;;;;;;;10.13;9.13;;;27.10;93.80;;;;;;5054027;28;20521;-48
2023/06/26 07:01:30;;;;;;;9.10;8.27;;;27.10;93.60;;;;;;5053715;28;20482;-48
2023/06/26 07:03:57;;;;;;;14.37;8.03;;;27.10;93.50;;;;;;5053799;28;20454;-49
2023/06/26 07:06:25;;;;;;;9.90;8.90;;;27.10;93.30;;;;;;5053669;28;20461;-47
2023/06/26 07:08:52;;;;;;;9.50;8.50;;;27.10;93.00;;;;;;5053065;28;20788;-49
2023/06/26 07:11:18;;;;;;;9.20;8.40;;;27.10;92.90;;;;;;5053194;28;21101;-49
2023/06/26 07:13:45;;;;;;;9.03;8.13;;;27.10;92.60;;;;;;5053068;28;20457;-49
2023/06/26 07:16:12;;;;;;;8.17;7.37;;;27.20;92.50;;;;;;5053763;28;20450;-48
2023/06/26 07:18:39;;;;;;;9.57;7.90;;;27.10;92.50;;;;;;5035053;28;20776;-48
2023/06/26 07:21:05;;;;;;;10.57;8.30;;;27.20;92.40;;;;;;5053461;28;20476;-47
2023/06/26 07:23:33;;;;;;;10.50;7.97;;;27.20;92.50;;;;;;5053314;28;20468;-49
2023/06/26 07:26:00;;;;;;;9.10;7.43;;;27.20;92.40;;;;;;5052782;28;20923;-48
2023/06/26 07:28:27;;;;;;;8.10;7.30;;;27.20;92.50;;;;;;5052357;28;20449;-48
2023/06/26 07:30:54;;;;;;;11.30;8.50;;;27.10;92.20;;;;;;5052824;28;20972;-48
2023/06/26 07:35:56;;;;;;;11.43;7.70;;;27.40;91.60;;;;;;5051245;28;20458;-51
2023/06/26 07:38:23;;;;;;;10.57;8.20;;;27.40;91.50;;;;;;5052399;28;20854;-51
2023/06/26 07:40:51;;;;;;;10.80;7.40;;;27.30;91.30;;;;;;5052791;28;20486;-51
2023/06/26 07:43:18;;;;;;;8.27;6.97;;;27.40;91.20;;;;;;5052374;28;20430;-51
2023/06/26 07:45:44;;;;;;;7.40;6.70;;;27.40;91.00;;;;;;5053054;28;20459;-50
2023/06/26 07:48:11;;;;;;;7.50;6.77;;;27.50;90.90;;;;;;5052376;28;20525;-51
2023/06/26 07:50:38;;;;;;;7.40;6.60;;;27.50;90.60;;;;;;5035072;28;20545;-50
2023/06/26 07:53:05;;;;;;;7.90;7.10;;;27.50;90.50;;;;;;5052751;28;20422;-51
2023/06/26 07:55:32;;;;;;;11.67;7.33;;;27.50;90.40;;;;;;5052812;28;20482;-50
2023/06/26 07:58:01;;;;;;;9.13;7.33;;;27.60;90.40;;;;;;5053013;28;20469;-53
2023/06/26 08:00:27;;;;;;;9.23;6.83;;;27.60;90.10;;;;;;5034919;28;20460;-51
2023/06/26 08:02:54;;;;;;;6.63;6.03;;;27.50;90.10;;;;;;5053307;28;20506;-50
2023/06/26 08:05:21;;;;;;;7.77;6.60;;;27.60;89.30;;;;;;5052562;28;20461;-51
2023/06/26 08:07:47;;;;;;;11.73;7.10;;;27.70;89.10;;;;;;5052870;28;20435;-50
2023/06/26 08:10:14;;;;;;;6.20;5.60;;;27.80;89.40;;;;;;5052461;28;20454;-51
2023/06/26 08:12:42;;;;;;;6.83;6.13;;;27.80;89.00;;;;;;5053011;28;20441;-50
2023/06/26 08:15:10;;;;;;;10.47;6.47;;;27.80;88.60;;;;;;5034713;28;20477;-50
2023/06/26 08:17:37;;;;;;;6.90;6.30;;;27.90;87.30;;;;;;5052710;28;20863;-51
2023/06/26 08:20:07;;;;;;;7.70;6.67;;;27.80;87.30;;;;;;5052060;28;21016;-51
2023/06/26 08:22:34;;;;;;;7.20;6.50;;;27.90;87.40;;;;;;5052669;28;20584;-51
2023/06/26 08:25:01;;;;;;;8.73;6.07;;;27.90;87.70;;;;;;5052180;28;20544;-50
2023/06/26 08:27:27;;;;;;;15.10;7.50;;;27.90;87.60;;;;;;5052206;28;20449;-51
2023/06/26 08:29:54;;;;;;;10.40;6.60;;;27.90;87.90;;;;;;5051712;28;20437;-50
2023/06/26 08:32:22;;;;;;;7.00;6.40;;;28.00;86.00;;;;;;5052048;28;20948;-49
2023/06/26 08:34:48;;;;;;;6.63;6.03;;;28.00;85.20;;;;;;5052095;28;20812;-51
2023/06/26 08:37:15;;;;;;;10.00;5.90;;;28.10;85.10;;;;;;5051877;28;20440;-51
2023/06/26 08:39:41;;;;;;;7.50;5.70;;;28.10;84.90;;;;;;5051086;28;20442;-50
2023/06/26 08:42:08;;;;;;;6.53;5.93;;;28.10;84.20;;;;;;5052199;28;20481;-51
2023/06/26 08:44:35;;;;;;;7.17;6.47;;;28.10;83.80;;;;;;5052182;28;20547;-51
2023/06/26 08:47:02;;;;;;;7.20;6.40;;;28.10;83.60;;;;;;5052190;28;20466;-51
2023/06/26 08:49:38;;;;;;;7.90;5.70;;;28.10;83.40;;;;;;5051320;28;20927;-51
2023/06/26 08:52:11;;;;;;;6.00;5.37;;;28.20;81.60;;;;;;5051882;28;20797;-51
2023/06/26 08:54:45;;;;;;;6.80;5.20;;;28.20;81.00;;;;;;5051989;28;20458;-50
2023/06/26 08:57:12;;;;;;;6.37;5.77;;;28.20;80.90;;;;;;5051668;28;20445;-50
2023/06/26 08:59:40;;;;;;;5.13;4.73;;;28.10;79.90;;;;;;5051175;28;20954;-50
2023/06/26 09:02:08;;;;;;;6.30;5.37;;;28.30;78.20;;;;;;5051855;28;20492;-52
2023/06/26 09:04:36;;;;;;;5.37;4.87;;;28.30;77.70;;;;;;5052040;28;20446;-52
2023/06/26 09:07:03;;;;;;;7.53;6.03;;;28.40;78.10;;;;;;5051691;28;20784;-51
2023/06/26 09:09:29;;;;;;;6.63;5.20;;;28.40;78.00;;;;;;5051216;28;20763;-50
2023/06/26 09:11:56;;;;;;;5.27;4.63;;;28.50;78.00;;;;;;5051461;28;20441;-51
2023/06/26 09:14:24;;;;;;;6.40;5.43;;;28.40;77.30;;;;;;5051656;28;20466;-51
2023/06/26 09:16:50;;;;;;;5.73;4.63;;;28.40;76.50;;;;;;5052531;28;20477;-51
2023/06/26 09:19:17;;;;;;;5.17;4.63;;;28.40;76.30;;;;;;5054142;28;20445;-50
2023/06/26 09:21:45;;;;;;;5.70;5.20;;;28.40;75.60;;;;;;5055749;28;20487;-52
2023/06/26 09:24:11;;;;;;;5.60;5.10;;;28.50;74.90;;;;;;5039430;28;20463;-52
2023/06/26 09:26:39;;;;;;;6.23;5.60;;;28.50;74.50;;;;;;5069547;28;20448;-51
2023/06/26 09:29:07;;;;;;;6.47;4.70;;;28.50;74.70;;;;;;5052202;28;20451;-50
2023/06/26 09:31:34;;;;;;;6.30;5.30;;;28.60;74.40;;;;;;5051587;28;20445;-51
2023/06/26 09:34:00;;;;;;;5.97;5.27;;;28.60;75.00;;;;;;5060048;28;20839;-51
2023/06/26 09:36:32;;;;;;;5.20;4.70;;;28.70;73.90;;;;;;5071269;28;20443;-51
2023/06/26 09:39:01;;;;;;;5.50;4.63;;;28.70;72.90;;;;;;5071004;28;20483;-50
2023/06/26 09:41:28;;;;;;;6.13;5.53;;;28.50;71.70;;;;;;5039504;28;20483;-51
2023/06/26 09:43:55;;;;;;;15.07;6.10;;;28.70;72.00;;;;;;5051038;28;20463;-51
2023/06/26 09:46:26;;;;;;;7.93;5.60;;;28.70;72.70;;;;;;5042430;28;20525;-51
2023/06/26 09:48:59;;;;;;;7.07;5.00;;;28.80;72.50;;;;;;5031379;28;20466;-51
2023/06/26 09:51:27;;;;;;;5.70;4.70;;;28.90;72.00;;;;;;5060044;28;20562;-52
2023/06/26 09:53:53;;;;;;;7.00;6.37;;;28.90;72.20;;;;;;5074884;28;20469;-52
2023/06/26 09:56:21;;;;;;;6.43;4.53;;;28.90;71.90;;;;;;5075215;28;20464;-51
2023/06/26 09:58:49;;;;;;;5.63;5.13;;;28.90;70.80;;;;;;5063465;28;20446;-52
2023/06/26 10:01:16;;;;;;;5.87;5.37;;;28.90;70.30;;;;;;5054323;28;20800;-52
2023/06/26 10:03:43;;;;;;;5.73;5.23;;;28.90;68.50;;;;;;5053909;28;22547;-51
2023/06/26 10:06:12;;;;;;;5.60;5.10;;;28.90;70.00;;;;;;5054344;28;20433;-51
2023/06/26 10:08:40;;;;;;;6.10;5.50;;;29.00;70.20;;;;;;5036430;28;20446;-52
2023/06/26 10:11:08;;;;;;;5.70;5.20;;;29.00;70.60;;;;;;5054561;28;20441;-52
2023/06/26 10:13:40;;;;;;;5.60;5.10;;;29.00;70.80;;;;;;5049131;28;20462;-51
2023/06/26 10:16:09;;;;;;;6.60;5.97;;;29.00;71.00;;;;;;5043133;28;20465;-50
2023/06/26 10:18:39;;;;;;;6.67;5.33;;;29.00;71.10;;;;;;5054109;28;20455;-52
2023/06/26 10:21:07;;;;;;;9.53;5.43;;;29.10;70.40;;;;;;5042047;28;20850;-52
2023/06/26 10:23:35;;;;;;;5.63;5.13;;;29.10;70.30;;;;;;5033767;28;20445;-52
2023/06/26 10:26:02;;;;;;;6.40;5.20;;;29.10;70.30;;;;;;5065231;28;20447;-50
2023/06/26 10:28:30;;;;;;;6.07;5.43;;;29.20;70.40;;;;;;5072812;28;20438;-50
2023/06/26 10:31:00;;;;;;;5.13;4.63;;;29.20;70.60;;;;;;5073081;28;20930;-51
2023/06/26 10:33:27;;;;;;;5.37;4.87;;;29.20;70.00;;;;;;5072339;28;20436;-52
2023/06/26 10:36:12;;;;;;;6.93;5.47;;;29.20;69.80;;;;;;5072579;28;20478;-52
2023/06/26 10:38:50;;;;;;;7.07;5.33;;;29.20;70.00;;;;;;5072712;28;20469;-51
2023/06/26 10:41:21;;;;;;;6.07;4.93;;;29.30;69.60;;;;;;5056119;28;20821;-52
2023/06/26 10:43:50;;;;;;;6.67;4.90;;;29.30;68.70;;;;;;5074131;28;20457;-52
2023/06/26 10:46:19;;;;;;;5.53;5.00;;;29.30;67.90;;;;;;5073951;28;20457;-51
2023/06/26 10:48:59;;;;;;;5.07;4.57;;;29.30;67.60;;;;;;5055895;28;20441;-52
2023/06/26 10:51:26;;;;;;;5.17;4.67;;;29.40;67.90;;;;;;5074326;28;20480;-51
2023/06/26 10:53:55;;;;;;;5.23;4.30;;;29.10;68.20;;;;;;5073973;28;20457;-53
2023/06/26 10:56:21;;;;;;;5.20;4.63;;;29.40;68.90;;;;;;5073842;28;20438;-53
2023/06/26 10:58:49;;;;;;;6.83;4.80;;;30.20;69.10;;;;;;5073385;28;20953;-53
2023/06/26 11:01:24;;;;;;;5.77;4.93;;;29.50;67.80;;;;;;5073084;28;20931;-53
2023/06/26 11:04:05;;;;;;;6.00;4.57;;;29.50;67.30;;;;;;5073857;28;20624;-54
2023/06/26 11:06:32;;;;;;;5.43;4.93;;;29.50;67.00;;;;;;5055959;28;20477;-51
2023/06/26 11:09:07;;;;;;;7.13;4.60;;;29.50;67.10;;;;;;5073638;28;20446;-53
2023/06/26 11:12:01;;;;;;;6.30;5.33;;;29.50;66.80;;;;;;5073816;28;20484;-53
2023/06/26 11:14:28;;;;;;;6.93;6.00;;;29.70;66.80;;;;;;5074161;28;20445;-51
2023/06/26 11:16:58;;;;;;;5.70;5.20;;;29.60;67.90;;;;;;5073589;28;20524;-52
2023/06/26 11:19:27;;;;;;;6.20;4.80;;;29.80;67.40;;;;;;5055330;28;20796;-51
2023/06/26 11:22:00;;;;;;;4.93;4.53;;;29.80;67.00;;;;;;5073765;28;20473;-52
2023/06/26 11:24:27;;;;;;;7.00;5.10;;;30.00;66.10;;;;;;5051796;28;20555;-51
2023/06/26 11:26:53;;;;;;;8.63;7.77;;;30.10;66.30;;;;;;5053271;28;20433;-56
2023/06/26 11:29:20;;;;;;;6.00;5.20;;;30.10;66.30;;;;;;5052718;28;20443;-52
2023/06/26 11:31:46;;;;;;;8.13;6.03;;;30.30;66.20;;;;;;5052852;28;20434;-52
2023/06/26 11:34:15;;;;;;;5.93;5.33;;;30.30;65.70;;;;;;5052888;28;20478;-51
2023/06/26 11:36:46;;;;;;;5.60;5.10;;;30.40;64.90;;;;;;5053133;28;20423;-52
2023/06/26 11:39:12;;;;;;;6.47;5.40;;;30.30;64.50;;;;;;5052582;28;20494;-52
2023/06/26 11:41:40;;;;;;;5.70;5.20;;;30.40;64.80;;;;;;5052864;28;20931;-51
2023/06/26 11:44:09;;;;;;;6.50;4.33;;;30.40;64.70;;;;;;5052663;28;20492;-52
2023/06/26 11:46:36;;;;;;;5.70;4.57;;;30.40;64.50;;;;;;5052859;28;20474;-51
2023/06/26 11:49:04;;;;;;;5.53;4.97;;;30.40;64.80;;;;;;5052260;28;20438;-52
2023/06/26 11:51:33;;;;;;;5.63;5.13;;;30.40;64.90;;;;;;5052482;28;20484;-52
2023/06/26 11:54:02;;;;;;;5.40;4.90;;;30.50;65.10;;;;;;5052680;28;20451;-50
2023/06/26 11:56:29;;;;;;;7.67;4.83;;;30.50;64.30;;;;;;5052253;28;20521;-51
2023/06/26 11:58:57;;;;;;;5.70;5.20;;;30.60;63.50;;;;;;5052052;28;20440;-52
2023/06/26 12:01:24;;;;;;;5.87;4.70;;;30.60;63.10;;;;;;5052613;28;20848;-51
2023/06/26 12:03:51;;;;;;;6.40;5.70;;;30.70;62.80;;;;;;5052807;28;20500;-52
2023/06/26 12:06:18;;;;;;;6.43;5.30;;;30.80;63.20;;;;;;5050864;28;20455;-50
2023/06/26 12:08:47;;;;;;;6.27;5.67;;;30.80;62.30;;;;;;5050855;28;20874;-52
2023/06/26 12:11:14;;;;;;;6.47;4.70;;;30.80;61.70;;;;;;5052283;28;20534;-50
2023/06/26 12:13:41;;;;;;;5.80;5.30;;;30.80;61.40;;;;;;5052555;28;20522;-52
2023/06/26 12:16:08;;;;;;;6.20;5.60;;;30.80;61.20;;;;;;5052869;28;20445;-49
2023/06/26 12:18:36;;;;;;;5.93;5.43;;;30.90;61.20;;;;;;5052404;28;20492;-52
2023/06/26 12:21:02;;;;;;;5.93;5.43;;;30.80;61.20;;;;;;5052603;28;20469;-52
2023/06/26 12:23:33;;;;;;;9.00;5.87;;;30.90;61.70;;;;;;5053273;28;20502;-51
2023/06/26 12:26:17;;;;;;;6.67;5.93;;;31.00;62.00;;;;;;5068339;28;20441;-51
2023/06/26 12:28:45;;;;;;;5.63;5.10;;;31.00;61.50;;;;;;5071745;28;21031;-52
2023/06/26 12:31:16;;;;;;;6.37;5.60;;;31.00;61.30;;;;;;5071867;28;20437;-53
2023/06/26 12:33:43;;;;;;;6.60;5.77;;;31.00;61.40;;;;;;5071830;28;20633;-51
2023/06/26 12:36:12;;;;;;;5.60;5.10;;;31.10;61.90;;;;;;5071584;28;20437;-50
2023/06/26 12:38:39;;;;;;;5.80;5.10;;;31.10;61.50;;;;;;5071686;28;20525;-51
2023/06/26 12:41:13;;;;;;;6.80;5.77;;;31.20;61.20;;;;;;5071986;28;20719;-51
2023/06/26 12:43:40;;;;;;;6.60;5.90;;;31.20;60.30;;;;;;5071720;28;20568;-51